Latest Weather Observations for Fitzroy Crossing

IDW60801

Issued at 3:03 pm WST Saturday 22 September 2018 (issued every 10 minutes, with the page automatically refreshed every 10 minutes)

About weather observations | Map of weather stations | Latest weather observations for WA | Other Formats
Station Details ID: 003093 Name: FITZROY CROSSING AERO Lat: -18.18 Lon: 125.56 Height: 114.5 m
Data from the previous 72 hours. | See also: Recent months at Fitzroy Crossing
Date/Time
WST
Temp
°C
App
Temp
°C
Dew
Point
°C
Rel
Hum
%
Delta-T
°C
Wind Press
QNH
hPa
Press
MSL
hPa
Rain since
9am
mm
Dir  Spd
km/h
Gust
km/h
Spd
kts
Gust
kts
22/03:00pm 37.1 32.3 -2.6 8 19.2 ESE 13 24 7 13 1013.4 1012.8 0.0
22/02:30pm 36.8 31.8 -4.6 7 19.3 NNE 13 19 7 10 1013.5 1012.9 0.0
22/02:00pm 36.9 32.6 -4.5 7 19.4 NNE 9 20 5 11 1014.0 1013.3 0.0
22/01:30pm 36.9 31.9 -4.5 7 19.4 E 13 24 7 13 1014.4 1013.7 0.0
22/01:00pm 36.8 31.4 -4.6 7 19.3 E 15 30 8 16 1014.9 1014.2 0.0
22/12:30pm 35.7 29.8 -5.4 7 18.8 NE 17 28 9 15 1015.5 1014.8 0.0
22/12:00pm 35.5 29.0 -5.5 7 18.7 ENE 20 33 11 18 1016.3 1015.6 0.0
22/11:30am 35.0 29.4 -5.9 7 18.4 ENE 15 28 8 15 1016.8 1016.1 0.0
22/11:00am 34.1 27.0 -4.8 8 17.7 ENE 24 35 13 19 1017.5 1016.8 0.0
22/10:30am 33.3 26.9 -5.4 8 17.4 NE 20 33 11 18 1018.1 1017.4 0.0
22/10:00am 32.5 26.7 -4.4 9 16.7 E 17 30 9 16 1018.6 1017.9 0.0
22/09:30am 30.4 24.5 -6.0 9 15.8 E 17 24 9 13 1018.9 1018.2 0.0
22/09:00am 29.5 23.1 -5.3 10 15.1 E 20 30 11 16 1019.2 1018.5 0.0
22/08:30am 28.2 22.2 -6.3 10 14.6 E 17 28 9 15 1019.1 1018.4 0.0
22/08:00am 27.4 21.5 -5.6 11 14.0 E 17 20 9 11 1019.1 1018.4 0.0
22/07:30am 26.7 21.2 -5.0 12 13.6 ESE 15 20 8 11 1019.0 1018.3 0.0
22/07:00am 25.3 20.3 -4.1 14 12.6 SE 13 19 7 10 1018.7 1018.0 0.0
22/06:30am 23.7 19.5 -3.6 16 11.7 SE 9 13 5 7 1018.4 1017.7 0.0
22/06:00am 21.9 18.1 -3.5 18 10.7 SSE 7 9 4 5 1018.0 1017.3 0.0
22/05:30am 22.0 17.8 -4.1 17 10.9 SE 9 9 5 5 1017.6 1016.9 0.0
22/05:00am 22.9 18.3 -4.2 16 11.4 ESE 11 13 6 7 1017.2 1016.5 0.0
22/04:30am 23.2 19.4 -4.0 16 11.5 SE 7 11 4 6 1016.9 1016.2 0.0
22/04:00am 24.4 20.1 -4.8 14 12.3 ESE 9 13 5 7 1016.5 1015.8 0.0
22/03:30am 25.3 20.6 -5.1 13 12.8 SE 11 17 6 9 1016.1 1015.4 0.0
22/03:00am 25.9 20.4 -5.6 12 13.2 E 15 20 8 11 1015.7 1015.0 0.0
22/02:30am 26.1 21.0 -5.5 12 13.3 ESE 13 20 7 11 1015.5 1014.8 0.0
22/02:00am 26.5 20.3 -5.2 12 13.5 E 19 24 10 13 1015.6 1014.9 0.0
22/01:30am 26.9 20.4 -6.0 11 13.8 ESE 20 30 11 16 1015.6 1014.9 0.0
22/01:00am 27.1 20.6 -5.9 11 13.9 ESE 20 28 11 15 1015.6 1014.9 0.0
22/12:30am 27.5 21.0 -5.6 11 14.1 ESE 20 30 11 16 1015.7 1015.0 0.0
22/12:00am 27.8 21.5 -4.2 12 14.0 ESE 20 30 11 16 1015.6 1014.9 0.0
 
Date/Time
WST
Temp
°C
App
Temp
°C
Dew
Point
°C
Rel
Hum
%
Delta-T
°C
Wind Press
QNH
hPa
Press
MSL
hPa
Rain since
9am
mm
Dir  Spd
km/h
Gust
km/h
Spd
kts
Gust
kts
21/11:30pm 28.3 22.0 -3.8 12 14.2 ESE 20 30 11 16 1015.6 1014.9 0.0
21/11:00pm 28.9 22.6 -1.2 14 14.0 ESE 22 32 12 17 1015.7 1015.0 0.0
21/10:30pm 27.3 23.6 2.4 20 12.2 ESE 11 13 6 7 1015.7 1015.0 0.0
21/10:00pm 27.4 23.7 2.5 20 12.3 ESE 11 13 6 7 1015.7 1015.0 0.0
21/09:30pm 27.7 24.1 2.7 20 12.4 SE 11 13 6 7 1015.7 1015.0 0.0
21/09:00pm 27.8 24.6 2.8 20 12.4 ESE 9 13 5 7 1015.7 1015.0 0.0
21/08:30pm 28.0 24.8 3.0 20 12.5 ESE 9 13 5 7 1015.7 1015.0 0.0
21/08:00pm 28.1 24.5 3.0 20 12.5 ESE 11 15 6 8 1015.5 1014.8 0.0
21/07:30pm 27.8 24.4 4.2 22 12.0 ESE 11 13 6 7 1015.3 1014.6 0.0
21/07:00pm 28.0 25.2 5.0 23 11.9 ESE 9 9 5 5 1015.1 1014.4 0.0
21/06:30pm 28.9 26.0 4.4 21 12.6 SE 9 11 5 6 1014.5 1013.8 0.0
21/06:00pm 30.3 27.5 3.4 18 13.7 SE 7 9 4 5 1014.0 1013.3 0.0
21/05:30pm 31.6 28.7 2.7 16 14.7 ESE 7 9 4 5 1013.5 1012.9 0.0
21/05:00pm 33.3 30.0 2.2 14 15.8 E 9 13 5 7 1013.2 1012.6 0.0
21/04:30pm 34.6 30.7 1.1 12 16.9 E 11 19 6 10 1012.9 1012.3 0.0
21/04:00pm 34.8 31.1 2.3 13 16.7 NNE 11 15 6 8 1012.9 1012.3 0.0
21/03:30pm 35.2 31.0 1.5 12 17.2 E 13 19 7 10 1012.8 1012.2 0.0
21/03:00pm 35.6 31.4 1.8 12 17.3 NE 13 20 7 11 1012.8 1012.2 0.0
21/02:30pm 35.6 31.4 1.8 12 17.3 ESE 13 22 7 12 1012.6 1012.0 0.0
21/02:00pm 34.9 29.9 1.3 12 17.0 NE 17 30 9 16 1012.8 1012.2 0.0
21/01:30pm 34.9 29.3 0.1 11 17.3 NE 19 28 10 15 1013.1 1012.5 0.0
21/01:00pm 34.2 28.5 -0.4 11 17.0 ENE 19 32 10 17 1013.5 1012.9 0.0
21/12:30pm 33.9 28.0 -0.7 11 16.9 ENE 20 35 11 19 1014.2 1013.5 0.0
21/12:00pm 33.5 27.7 0.2 12 16.4 NE 20 32 11 17 1014.7 1014.0 0.0
21/11:30am 32.5 25.7 0.6 13 15.7 ENE 26 39 14 21 1015.4 1014.7 0.0
21/11:00am 32.3 25.8 0.4 13 15.6 NE 24 35 13 19 1015.8 1015.1 0.0
21/10:30am 32.3 25.4 0.4 13 15.7 E 26 41 14 22 1016.2 1015.5 0.0
21/10:00am 31.0 23.8 0.4 14 14.9 ENE 28 39 15 21 1016.5 1015.8 0.0
21/09:30am 29.4 22.6 1.0 16 13.8 ENE 26 39 14 21 1017.1 1016.4 0.0
21/09:00am 28.5 21.9 1.9 18 13.0 ENE 26 39 14 21 1017.4 1016.7 0.0
21/08:30am 27.1 21.1 3.6 22 11.8 E 24 35 13 19 1017.5 1016.8 0.0
21/08:00am 26.3 20.9 4.7 25 11.0 ENE 22 37 12 20 1017.5 1016.8 0.0
21/07:30am 25.0 21.2 5.7 29 9.9 E 15 20 8 11 1017.7 1017.0 0.0
21/07:00am 23.1 20.0 5.5 32 8.9 ESE 11 19 6 10 1017.3 1016.6 0.0
21/06:30am 22.0 19.4 6.3 36 8.0 SSE 9 13 5 7 1017.0 1016.3 0.0
21/06:00am 21.1 17.7 5.9 37 7.6 E 13 17 7 9 1016.5 1015.8 0.0
21/05:30am 21.3 17.5 5.6 36 7.9 ESE 15 22 8 12 1016.1 1015.4 0.0
21/05:00am 21.5 16.4 5.8 36 7.9 E 22 33 12 18 1015.5 1014.8 0.0
21/04:30am 21.6 17.0 6.7 38 7.6 E 20 32 11 17 1015.1 1014.4 0.0
21/04:00am 21.1 17.6 7.0 40 7.2 E 15 20 8 11 1015.2 1014.5 0.0
21/03:30am 20.9 17.9 7.9 43 6.8 E 13 17 7 9 1015.2 1014.5 0.0
21/03:00am 20.8 18.7 8.4 45 6.5 ESE 9 13 5 7 1015.4 1014.7 0.0
21/02:30am 20.8 18.3 8.1 44 6.6 SE 11 15 6 8 1015.5 1014.8 0.0
21/02:00am 20.9 18.7 7.9 43 6.8 SSE 9 13 5 7 1015.7 1015.0 0.0
21/01:30am 20.6 18.3 7.6 43 6.7 E 9 13 5 7 1015.5 1014.8 0.0
21/01:00am 20.9 19.5 7.2 41 7.0 ENE 4 9 2 5 1015.7 1015.0 0.0
21/12:30am 21.5 19.0 6.6 38 7.6 ESE 9 11 5 6 1015.8 1015.1 0.0
21/12:00am 21.7 18.4 6.4 37 7.8 E 13 19 7 10 1015.9 1015.2 0.0
 
Date/Time
WST
Temp
°C
App
Temp
°C
Dew
Point
°C
Rel
Hum
%
Delta-T
°C
Wind Press
QNH
hPa
Press
MSL
hPa
Rain since
9am
mm
Dir  Spd
km/h
Gust
km/h
Spd
kts
Gust
kts
20/11:30pm 21.8 18.6 5.3 34 8.2 E 11 19 6 10 1016.1 1015.4 0.0
20/11:00pm 21.8 18.0 5.7 35 8.1 E 15 22 8 12 1016.7 1016.0 0.0
20/10:30pm 21.6 18.2 5.9 36 7.9 ENE 13 19 7 10 1017.1 1016.4 0.0
20/10:00pm 23.0 20.3 3.5 28 9.5 ESE 7 13 4 7 1016.9 1016.2 0.0
20/09:30pm 23.2 19.6 3.2 27 9.7 SE 11 19 6 10 1017.2 1016.5 0.0
20/09:00pm 24.2 18.5 2.9 25 10.3 SE 22 37 12 20 1016.4 1015.7 0.0
20/08:30pm 24.0 18.0 3.3 26 10.1 SE 24 33 13 18 1016.2 1015.5 0.0
20/08:00pm 25.6 19.1 0.3 19 11.8 SE 24 39 13 21 1016.3 1015.6 0.0
20/07:30pm 26.3 19.1 0.9 19 12.1 SSE 28 44 15 24 1015.7 1015.0 0.0
20/07:00pm 27.3 19.8 -1.6 15 13.2 SSE 28 44 15 24 1014.7 1014.0 0.0
20/06:30pm 27.5 20.5 -0.5 16 13.1 SSE 26 35 14 19 1014.3 1013.6 0.0
20/06:00pm 27.7 20.0 -0.4 16 13.2 SSE 30 44 16 24 1013.2 1012.6 0.0
20/05:30pm 28.5 21.2 0.3 16 13.5 SSE 28 41 15 22 1012.6 1012.0 0.0
20/05:00pm 28.9 21.2 -0.3 15 13.8 SSE 30 43 16 23 1012.2 1011.5 0.0
20/04:30pm 29.4 21.2 0.1 15 14.0 SSE 33 44 18 24 1011.7 1011.0 0.0
20/04:00pm 30.2 23.4 0.7 15 14.4 SSE 26 39 14 21 1012.4 1011.8 0.0
20/03:30pm 30.4 24.0 0.9 15 14.4 SSE 24 39 13 21 1011.9 1011.2 0.0
20/03:00pm 30.5 23.3 1.0 15 14.5 SSE 28 41 15 22 1010.9 1010.2 0.0
20/02:30pm 30.8 24.4 1.2 15 14.6 SSE 24 35 13 19 1012.1 1011.4 0.0
20/02:00pm 31.1 24.3 0.5 14 14.9 SSE 26 33 14 18 1011.8 1011.1 0.0
20/01:30pm 30.7 24.2 0.2 14 14.8 SSE 24 35 13 19 1012.1 1011.4 0.0
20/01:00pm 30.6 24.2 1.0 15 14.5 SSE 24 35 13 19 1011.9 1011.2 0.0
20/12:30pm 31.2 23.6 0.6 14 15.0 SSE 30 44 16 24 1012.4 1011.8 0.0
20/12:00pm 30.0 23.5 0.6 15 14.3 SSE 24 33 13 18 1012.7 1012.1 0.0
20/11:30am 30.0 23.2 0.6 15 14.3 SE 26 35 14 19 1013.2 1012.6 0.0
20/11:00am 29.9 23.2 1.4 16 14.0 SSE 26 43 14 23 1013.7 1013.1 0.0
20/10:30am 29.8 22.7 1.3 16 14.0 SE 28 41 15 22 1014.4 1013.7 0.0
20/10:00am 28.1 22.1 0.8 17 13.1 SE 22 32 12 17 1015.3 1014.6 0.0
20/09:30am 28.4 20.7 0.2 16 13.4 SE 30 43 16 23 1015.2 1014.5 0.0
20/09:00am 28.5 21.4 1.1 17 13.3 SE 28 39 15 21 1015.0 1014.3 0.0
20/08:30am 27.8 20.2 0.5 17 13.0 SE 30 46 16 25 1015.1 1014.4 0.0
20/08:23am 27.7 20.5 0.5 17 13.0 SE 28 46 15 25 1015.1 1014.4 0.0
20/08:00am 27.4 19.7 0.2 17 12.8 SE 30 46 16 25 1015.2 1014.5 0.0
20/07:59am 27.5 20.2 0.3 17 12.9 SE 28 46 15 25 1015.1 1014.4 0.0
20/07:30am 26.4 20.8 0.9 19 12.1 SSE 20 28 11 15 1014.6 1013.9 0.0
20/07:00am 24.1 19.4 1.1 22 10.8 SE 15 24 8 13 1014.6 1013.9 0.0
20/06:30am 23.5 19.2 1.2 23 10.4 SSE 13 17 7 9 1014.3 1013.6 0.0
20/06:00am 22.5 17.8 0.9 24 10.0 SSE 15 20 8 11 1013.6 1013.0 0.0
20/05:30am 22.6 17.8 0.4 23 10.2 S 15 19 8 10 1013.7 1013.1 0.0
20/05:00am 22.1 18.1 0.6 24 9.8 SE 11 13 6 7 1013.2 1012.6 0.0
20/04:30am 23.0 19.0 0.2 22 10.4 S 11 15 6 8 1013.0 1012.4 0.0
20/04:00am 23.6 18.8 0.0 21 10.8 SSE 15 20 8 11 1012.6 1012.0 0.0
20/03:30am 24.2 19.0 -0.2 20 11.2 SSE 17 24 9 13 1012.4 1011.8 0.0
20/03:00am 24.7 19.4 -0.4 19 11.5 SSE 17 26 9 14 1012.3 1011.6 0.0
20/02:30am 25.1 19.3 -0.1 19 11.6 SSE 20 28 11 15 1012.1 1011.4 0.0
20/02:00am 25.6 18.9 -1.2 17 12.2 SSE 24 33 13 18 1011.9 1011.2 0.0
20/01:30am 25.6 19.5 -2.1 16 12.4 SSE 20 30 11 16 1011.8 1011.1 0.0
20/01:00am 26.1 20.0 -2.5 15 12.8 SSE 20 32 11 17 1011.7 1011.0 0.0
20/12:30am 26.2 20.2 -3.4 14 13.0 S 19 26 10 14 1011.9 1011.2 0.0
20/12:00am 26.2 20.9 -3.4 14 13.0 SSE 15 24 8 13 1011.9 1011.2 0.0
 
Date/Time
WST
Temp
°C
App
Temp
°C
Dew
Point
°C
Rel
Hum
%
Delta-T
°C
Wind Press
QNH
hPa
Press
MSL
hPa
Rain since
9am
mm
Dir  Spd
km/h
Gust
km/h
Spd
kts
Gust
kts
19/11:30pm 26.6 21.3 -4.0 13 13.3 S 15 20 8 11 1012.6 1012.0 0.0
19/11:00pm 27.1 21.0 -3.7 13 13.5 S 19 26 10 14 1012.6 1012.0 0.0
19/10:30pm 27.6 21.3 -4.3 12 13.9 S 20 28 11 15 1012.7 1012.1 0.0
19/10:00pm 27.9 21.6 -4.1 12 14.1 S 20 28 11 15 1012.7 1012.1 0.0
19/09:30pm 28.5 21.7 -4.8 11 14.5 SSE 22 28 12 15 1012.9 1012.3 0.0
19/09:00pm 29.4 22.3 -4.1 11 14.9 SSE 24 33 13 18 1012.8 1012.2 0.0
19/08:30pm 30.1 23.3 -4.8 10 15.4 S 22 32 12 17 1012.7 1012.1 0.0
19/08:00pm 30.2 24.0 -3.5 11 15.2 S 20 28 11 15 1012.4 1011.8 0.0
19/07:30pm 30.9 25.4 -1.8 12 15.3 S 17 22 9 12 1011.9 1011.2 0.0
19/07:00pm 31.3 26.3 -1.5 12 15.5 S 15 19 8 10 1011.7 1011.0 0.0
19/06:30pm 32.0 26.5 -2.1 11 16.0 S 17 22 9 12 1011.4 1010.7 0.0
19/06:00pm 32.6 27.2 -1.7 11 16.3 S 17 24 9 13 1010.7 1010.0 0.0
19/05:30pm 33.4 28.8 -1.0 11 16.6 S 13 17 7 9 1010.3 1009.6 0.0
19/05:00pm 34.3 28.9 -1.7 10 17.3 SSE 17 22 9 12 1010.0 1009.3 0.0
19/04:30pm 35.4 29.7 -0.8 10 17.8 SSE 19 28 10 15 1009.7 1009.0 0.0
19/04:00pm 35.8 30.3 -2.0 9 18.3 SSE 17 30 9 16 1009.4 1008.7 0.0
19/03:30pm 36.2 30.2 -1.7 9 18.4 SSE 20 28 11 15 1009.5 1008.8 0.0

Other Formats:

Comma delimited format used in spreadsheet applications
http://www.bom.gov.au/fwo/IDW60801/IDW60801.94206.axf

JavaScript Object Notation format (JSON) in row-major order
http://www.bom.gov.au/fwo/IDW60801/IDW60801.94206.json